This is the latest recevied weather packets stored in our database for station/object OE6PLD-13. If no packets are shown the sender has not sent any weather packets the latest 10 day(s).
| Time | Temp. | Humidity | Pressure | Rain* | Wind** | Luminosity | Snow |
|---|---|---|---|---|---|---|---|
| 1777461123 | 12.22° C | 50% | 1017.6 hPa | 0.76 mm | - | 175 W/m² | - |
| 1777460940 | 11.67° C | 51% | 1017.5 hPa | 0.76 mm | - | 176 W/m² | - |
| 1777460756 | 11.67° C | 49% | 1017.3 hPa | 0.76 mm | - | 181 W/m² | - |
| 1777460573 | 11.67° C | 50% | 1017.3 hPa | 0.76 mm | - | 184 W/m² | - |
| 1777460390 | 12.22° C | 50% | 1017.2 hPa | 0.76 mm | - | 186 W/m² | - |
| 1777460206 | 12.22° C | 50% | 1017.3 hPa | 0.76 mm | - | 179 W/m² | - |
| 1777460023 | 12.22° C | 48% | 1017.4 hPa | 0.76 mm | - | 167 W/m² | - |
| 1777459840 | 11.67° C | 51% | 1017.5 hPa | 0.76 mm | - | 162 W/m² | - |
| 1777459656 | 11.67° C | 48% | 1017.3 hPa | 0.76 mm | - | 160 W/m² | - |
| 1777459473 | 11.11° C | 51% | 1017.5 hPa | 0.76 mm | - | 146 W/m² | - |
| 1777459289 | 11.11° C | 50% | 1017.5 hPa | 0.76 mm | - | 142 W/m² | - |
| 1777459106 | 11.11° C | 51% | 1017.5 hPa | 0.76 mm | - | 136 W/m² | - |
| 1777458923 | 11.11° C | 52% | 1017.5 hPa | 0.76 mm | - | 124 W/m² | - |
| 1777458740 | 11.11° C | 52% | 1017.4 hPa | 0.76 mm | - | 120 W/m² | - |
| 1777458556 | 11.11° C | 50% | 1017.4 hPa | 0.76 mm | - | 121 W/m² | - |
| 1777458373 | 11.11° C | 51% | 1017.6 hPa | 0.76 mm | - | 121 W/m² | - |
| 1777458189 | 11.11° C | 52% | 1017.5 hPa | 0.76 mm | - | 115 W/m² | - |
| 1777458006 | 11.11° C | 50% | 1017.4 hPa | 0.76 mm | - | 113 W/m² | - |
| 1777457823 | 11.11° C | 50% | 1017.5 hPa | 0.76 mm | - | 108 W/m² | - |
| 1777457639 | 11.11° C | 54% | 1017.3 hPa | 0.76 mm | - | 104 W/m² | - |
| 1777457456 | 11.11° C | 52% | 1017.4 hPa | 0.76 mm | - | 113 W/m² | - |
| 1777457273 | 10.56° C | 57% | 1017.5 hPa | 0.76 mm | - | 124 W/m² | - |
| 1777457089 | 11.11° C | 52% | 1017.5 hPa | 0.76 mm | - | 122 W/m² | - |
| 1777456906 | 11.11° C | 55% | 1017.5 hPa | 0.76 mm | - | 122 W/m² | - |
| 1777456723 | 11.11° C | 56% | 1017.4 hPa | 0.76 mm | - | 128 W/m² | - |
* Rain latest hour (hover to see other rain measurements)
** Current wind speed in m/s (hover to see current wind gust speed)